createdAt,value
2018-09-15T00:00:39.870Z,101484.59
2018-09-15T00:03:08.320Z,101479.37
2018-09-15T00:05:36.755Z,101478.08
2018-09-15T00:08:05.205Z,101482.33
2018-09-15T00:10:33.637Z,101485.33
2018-09-15T00:13:02.113Z,101490.03
2018-09-15T00:15:30.889Z,101486.56
2018-09-15T00:18:01.104Z,101489.05
2018-09-15T00:20:29.539Z,101493.70
2018-09-15T00:22:57.986Z,101484.25
2018-09-15T00:25:26.441Z,101494.97
2018-09-15T00:27:54.878Z,101487.16
2018-09-15T00:30:23.297Z,101485.84
2018-09-15T00:32:51.965Z,101481.11
2018-09-15T00:35:21.088Z,101485.31
2018-09-15T00:37:49.539Z,101484.36
2018-09-15T00:40:17.950Z,101493.33
2018-09-15T00:42:46.392Z,101493.74
2018-09-15T00:45:14.890Z,101490.28
2018-09-15T00:47:43.316Z,101500.11
2018-09-15T00:50:11.763Z,101503.05
2018-09-15T00:52:40.182Z,101504.27
2018-09-15T00:55:08.621Z,101498.27
2018-09-15T00:57:37.079Z,101498.22
2018-09-15T01:00:07.108Z,101502.92
2018-09-15T01:02:35.572Z,101507.95
2018-09-15T01:05:04.440Z,101506.17
2018-09-15T01:07:32.851Z,101506.45
2018-09-15T01:10:01.327Z,101508.56
2018-09-15T01:12:29.707Z,101502.66
2018-09-15T01:14:58.279Z,101501.81
2018-09-15T01:17:27.353Z,101502.66
2018-09-15T01:19:55.841Z,101500.97
2018-09-15T01:22:24.237Z,101505.27
2018-09-15T01:24:52.676Z,101509.56
2018-09-15T01:27:21.111Z,101496.23
2018-09-15T01:29:49.539Z,101498.39
2018-09-15T01:32:17.961Z,101504.39
2018-09-15T01:34:46.384Z,101505.59
2018-09-15T01:37:14.774Z,101501.71
2018-09-15T01:39:43.682Z,101504.67
2018-09-15T01:42:12.211Z,101503.33
2018-09-15T01:44:40.612Z,101504.17
2018-09-15T01:47:09.061Z,101506.26
2018-09-15T01:49:37.517Z,101503.20
2018-09-15T01:52:06.017Z,101504.50
2018-09-15T01:54:34.448Z,101507.59
2018-09-15T01:57:02.909Z,101504.17
2018-09-15T01:59:31.348Z,101501.56
2018-09-15T02:01:59.788Z,101499.85
2018-09-15T02:04:28.176Z,101499.44
2018-09-15T02:06:56.620Z,101501.58
2018-09-15T02:09:25.067Z,101497.19
2018-09-15T02:11:53.492Z,101491.61
2018-09-15T02:14:21.905Z,101496.27
2018-09-15T02:16:50.321Z,101494.56
2018-09-15T02:19:19.464Z,101492.88
2018-09-15T02:21:47.948Z,101498.44
2018-09-15T02:24:16.380Z,101505.27
2018-09-15T02:26:44.793Z,101503.98
2018-09-15T02:29:13.164Z,101498.80
2018-09-15T02:31:41.558Z,101500.91
2018-09-15T02:34:10.567Z,101500.73
2018-09-15T02:36:39.022Z,101498.41
2018-09-15T02:39:09.194Z,101509.08
2018-09-15T02:41:37.605Z,101515.92
2018-09-15T02:44:06.042Z,101507.75
2018-09-15T02:46:34.562Z,101512.09
2018-09-15T02:49:02.971Z,101511.83
2018-09-15T02:51:31.372Z,101505.88
2018-09-15T02:53:59.804Z,101517.47
2018-09-15T02:56:28.223Z,101513.20
2018-09-15T02:58:56.624Z,101513.59
2018-09-15T03:01:25.111Z,101507.20
2018-09-15T03:03:53.523Z,101517.87
2018-09-15T03:06:21.951Z,101519.56
2018-09-15T03:08:50.363Z,101516.15
2018-09-15T03:11:18.776Z,101524.34
2018-09-15T03:13:47.181Z,101514.95
2018-09-15T03:16:15.641Z,101517.08
2018-09-15T03:18:44.076Z,101513.66
2018-09-15T03:21:12.569Z,101516.33
2018-09-15T03:23:41.756Z,101515.97
2018-09-15T03:26:10.299Z,101518.95
2018-09-15T03:28:38.759Z,101512.09
2018-09-15T03:31:07.176Z,101518.58
2018-09-15T03:33:35.658Z,101520.72
2018-09-15T03:36:04.042Z,101515.67
2018-09-15T03:38:32.416Z,101527.28
2018-09-15T03:41:00.829Z,101524.69
2018-09-15T03:43:29.250Z,101522.97
2018-09-15T03:45:57.619Z,101516.13
2018-09-15T03:48:26.394Z,101516.16
2018-09-15T03:50:54.801Z,101511.48
2018-09-15T03:53:23.195Z,101519.24
2018-09-15T03:55:51.559Z,101520.09
2018-09-15T03:58:19.988Z,101529.11
2018-09-15T04:00:49.142Z,101528.63
2018-09-15T04:03:17.897Z,101530.80
2018-09-15T04:05:46.333Z,101529.93
2018-09-15T04:08:14.762Z,101527.78
2018-09-15T04:10:43.511Z,101523.10
2018-09-15T04:13:11.920Z,101526.98
2018-09-15T04:15:40.321Z,101535.97
2018-09-15T04:18:08.972Z,101536.84
2018-09-15T04:20:38.052Z,101538.92
2018-09-15T04:23:06.533Z,101541.94
2018-09-15T04:25:34.992Z,101540.21
2018-09-15T04:28:03.420Z,101543.64
2018-09-15T04:30:31.792Z,101544.09
2018-09-15T04:33:00.226Z,101544.09
2018-09-15T04:35:28.650Z,101543.69
2018-09-15T04:37:57.069Z,101539.84
2018-09-15T04:40:25.480Z,101550.62
2018-09-15T04:42:53.876Z,101551.06
2018-09-15T04:45:22.287Z,101548.91
2018-09-15T04:47:50.903Z,101555.78
2018-09-15T04:50:19.297Z,101555.36
2018-09-15T04:52:47.993Z,101557.09
2018-09-15T04:55:16.469Z,101560.95
2018-09-15T04:57:44.875Z,101560.10
2018-09-15T05:00:13.278Z,101560.98
2018-09-15T05:02:41.663Z,101561.02
2018-09-15T05:05:10.110Z,101556.30
2018-09-15T05:07:38.567Z,101561.88
2018-09-15T05:10:07.009Z,101565.32
2018-09-15T05:12:35.493Z,101569.58
2018-09-15T05:15:03.842Z,101567.01
2018-09-15T05:17:32.249Z,101573.40
2018-09-15T05:20:00.722Z,101582.41
2018-09-15T05:22:29.080Z,101583.28
2018-09-15T05:24:57.502Z,101578.56
2018-09-15T05:27:25.908Z,101581.99
2018-09-15T05:29:54.367Z,101576.87
2018-09-15T05:32:22.784Z,101582.44
2018-09-15T05:34:51.212Z,101583.30
2018-09-15T05:37:19.587Z,101585.47
2018-09-15T05:39:48.028Z,101581.19
2018-09-15T05:42:16.397Z,101581.57
2018-09-15T05:44:44.976Z,101580.66
2018-09-15T05:47:13.454Z,101580.55
2018-09-15T05:49:41.913Z,101586.95
2018-09-15T05:52:10.280Z,101590.75
2018-09-15T05:54:38.721Z,101586.41
2018-09-15T05:57:07.120Z,101596.70
2018-09-15T05:59:35.565Z,101602.25
2018-09-15T06:02:03.981Z,101607.35
2018-09-15T06:04:32.734Z,101611.23
2018-09-15T06:07:01.115Z,101615.97
2018-09-15T06:09:29.516Z,101617.25
2018-09-15T06:11:57.954Z,101619.38
2018-09-15T06:14:26.366Z,101622.00
2018-09-15T06:16:54.760Z,101619.00
2018-09-15T06:19:23.225Z,101625.05
2018-09-15T06:21:51.644Z,101626.36
2018-09-15T06:24:20.098Z,101628.53
2018-09-15T06:26:48.582Z,101633.67
2018-09-15T06:29:16.989Z,101634.17
2018-09-15T06:31:45.481Z,101644.05
2018-09-15T06:34:13.904Z,101642.37
2018-09-15T06:36:42.298Z,101649.68
2018-09-15T06:39:11.443Z,101652.70
2018-09-15T06:41:40.080Z,101654.86
2018-09-15T06:44:08.568Z,101654.91
2018-09-15T06:46:36.971Z,101652.36
2018-09-15T06:49:05.432Z,101661.38
2018-09-15T06:51:34.445Z,101653.31
2018-09-15T06:54:02.902Z,101654.22
2018-09-15T06:56:31.313Z,101649.97
2018-09-15T06:58:59.779Z,101660.27
2018-09-15T07:01:28.269Z,101661.58
2018-09-15T07:03:56.688Z,101658.61
2018-09-15T07:06:25.123Z,101666.77
2018-09-15T07:08:53.729Z,101665.48
2018-09-15T07:11:22.162Z,101665.13
2018-09-15T07:13:50.568Z,101663.42
2018-09-15T07:16:19.040Z,101671.16
2018-09-15T07:18:47.465Z,101677.20
2018-09-15T07:21:15.962Z,101681.55
2018-09-15T07:23:44.776Z,101690.55
2018-09-15T07:26:13.633Z,101693.20
2018-09-15T07:28:42.157Z,101693.76
2018-09-15T07:31:11.007Z,101693.98
2018-09-15T07:33:39.439Z,101698.94
2018-09-15T07:36:08.648Z,101705.95
2018-09-15T07:38:37.192Z,101700.48
2018-09-15T07:41:05.664Z,101682.77
2018-09-15T07:43:34.169Z,101708.27
2018-09-15T07:46:02.619Z,101715.13
2018-09-15T07:48:31.062Z,101711.66
2018-09-15T07:50:59.464Z,101715.98
2018-09-15T07:53:27.932Z,101712.96
2018-09-15T07:55:56.318Z,101720.69
2018-09-15T07:58:24.785Z,101718.56
2018-09-15T08:00:53.270Z,101719.91
2018-09-15T08:03:21.699Z,101723.84
2018-09-15T08:05:50.165Z,101724.28
2018-09-15T08:08:18.608Z,101720.90
2018-09-15T08:10:47.029Z,101720.96
2018-09-15T08:13:15.515Z,101722.33
2018-09-15T08:15:43.928Z,101723.23
2018-09-15T08:18:12.462Z,101717.70
2018-09-15T08:20:40.890Z,101720.82
2018-09-15T08:23:10.372Z,101718.33
2018-09-15T08:25:38.888Z,101721.41
2018-09-15T08:28:07.862Z,101719.31
2018-09-15T08:30:36.283Z,101722.03
2018-09-15T08:33:05.404Z,101722.49
2018-09-15T08:35:34.604Z,101728.97
2018-09-15T08:38:03.216Z,101729.39
2018-09-15T08:40:31.668Z,101737.52
2018-09-15T08:43:00.188Z,101730.95
2018-09-15T08:45:29.000Z,101732.25
2018-09-15T08:47:57.448Z,101715.88
2018-09-15T08:50:25.898Z,101734.23
2018-09-15T08:52:54.590Z,101740.40
2018-09-15T08:55:23.005Z,101742.55
2018-09-15T08:57:52.112Z,101743.41
2018-09-15T09:00:20.540Z,101744.22
2018-09-15T09:02:48.945Z,101744.22
2018-09-15T09:05:17.366Z,101749.88
2018-09-15T09:07:45.821Z,101747.76
2018-09-15T09:10:14.321Z,101752.15
2018-09-15T09:12:43.558Z,101750.45
2018-09-15T09:15:12.023Z,101745.75
2018-09-15T09:17:40.536Z,101745.85
2018-09-15T09:20:08.944Z,101745.96
2018-09-15T09:22:37.415Z,101745.58
2018-09-15T09:25:05.908Z,101733.53
2018-09-15T09:27:34.384Z,101741.70
2018-09-15T09:30:02.813Z,101740.84
2018-09-15T09:32:31.361Z,101744.27
2018-09-15T09:34:59.855Z,101752.02
2018-09-15T09:37:28.272Z,101748.21
2018-09-15T09:39:56.741Z,101741.78
2018-09-15T09:42:25.347Z,101741.45
2018-09-15T09:44:53.833Z,101741.96
2018-09-15T09:47:22.844Z,101739.41
2018-09-15T09:49:51.298Z,101742.85
2018-09-15T09:52:19.728Z,101738.09
2018-09-15T09:54:48.191Z,101739.38
2018-09-15T09:57:16.616Z,101742.34
2018-09-15T09:59:45.444Z,101746.62
2018-09-15T10:02:15.163Z,101749.96
2018-09-15T10:04:43.607Z,101752.95
2018-09-15T10:07:12.136Z,101746.92
2018-09-15T10:09:40.450Z,101744.34
2018-09-15T10:12:08.889Z,101740.48
2018-09-15T10:14:37.346Z,101742.66
2018-09-15T10:17:06.203Z,101750.88
2018-09-15T10:19:34.621Z,101750.07
2018-09-15T10:22:03.052Z,101752.26
2018-09-15T10:24:31.481Z,101755.28
2018-09-15T10:27:00.036Z,101748.87
2018-09-15T10:29:28.709Z,101753.62
2018-09-15T10:31:57.153Z,101751.52
2018-09-15T10:34:25.830Z,101745.92
2018-09-15T10:36:55.176Z,101741.63
2018-09-15T10:39:23.608Z,101744.64
2018-09-15T10:41:52.077Z,101747.66
2018-09-15T10:44:20.489Z,101743.39
2018-09-15T10:46:48.943Z,101747.23
2018-09-15T10:49:17.397Z,101752.01
2018-09-15T10:51:45.849Z,101750.24
2018-09-15T10:54:14.265Z,101746.41
2018-09-15T10:56:42.705Z,101743.86
2018-09-15T10:59:11.129Z,101743.44
2018-09-15T11:01:39.552Z,101741.74
2018-09-15T11:04:08.021Z,101733.16
2018-09-15T11:06:36.448Z,101734.89
2018-09-15T11:09:07.460Z,101730.14
2018-09-15T11:11:35.886Z,101733.16
2018-09-15T11:14:04.335Z,101731.00
2018-09-15T11:16:32.736Z,101740.52
2018-09-15T11:19:02.114Z,101740.50
2018-09-15T11:21:30.550Z,101729.73
2018-09-15T11:23:59.021Z,101729.72
2018-09-15T11:26:27.881Z,101732.73
2018-09-15T11:28:56.369Z,101724.53
2018-09-15T11:31:24.809Z,101720.65
2018-09-15T11:33:54.557Z,101718.06
2018-09-15T11:36:23.027Z,101720.65
2018-09-15T11:38:51.523Z,101717.66
2018-09-15T11:41:19.997Z,101718.50
2018-09-15T11:43:48.443Z,101720.23
2018-09-15T11:46:17.269Z,101728.44
2018-09-15T11:48:45.677Z,101730.14
2018-09-15T11:51:14.192Z,101739.64
2018-09-15T11:53:42.677Z,101732.75
2018-09-15T11:56:11.082Z,101735.31
2018-09-15T11:58:39.542Z,101738.73
2018-09-15T12:01:08.058Z,101734.86
2018-09-15T12:03:36.508Z,101736.17
2018-09-15T12:06:04.988Z,101731.84
2018-09-15T12:08:33.424Z,101732.27
2018-09-15T12:11:01.896Z,101727.04
2018-09-15T12:13:30.284Z,101732.68
2018-09-15T12:15:58.669Z,101741.27
2018-09-15T12:18:27.972Z,101742.93
2018-09-15T12:20:56.380Z,101736.81
2018-09-15T12:23:24.816Z,101739.38
2018-09-15T12:25:53.221Z,101741.19
2018-09-15T12:28:21.889Z,101732.63
2018-09-15T12:30:50.253Z,101738.25
2018-09-15T12:33:18.704Z,101736.54
2018-09-15T12:35:47.078Z,101731.77
2018-09-15T12:38:15.488Z,101746.88
2018-09-15T12:40:44.679Z,101738.67
2018-09-15T12:43:13.106Z,101737.42
2018-09-15T12:45:41.553Z,101733.11
2018-09-15T12:48:09.990Z,101736.13
2018-09-15T12:50:38.488Z,101731.78
2018-09-15T12:53:06.904Z,101730.92
2018-09-15T12:55:35.316Z,101745.58
2018-09-15T12:58:03.805Z,101745.57
2018-09-15T13:00:32.213Z,101740.78
2018-09-15T13:03:00.639Z,101740.82
2018-09-15T13:05:29.093Z,101739.94
2018-09-15T13:07:57.555Z,101742.09
2018-09-15T13:10:25.977Z,101741.66
2018-09-15T13:12:54.372Z,101742.98
2018-09-15T13:15:22.805Z,101741.69
2018-09-15T13:17:51.165Z,101740.39
2018-09-15T13:20:19.584Z,101732.64
2018-09-15T13:22:49.364Z,101731.36
2018-09-15T13:25:17.831Z,101732.64
2018-09-15T13:27:46.261Z,101737.80
2018-09-15T13:30:14.730Z,101740.83
2018-09-15T13:32:43.138Z,101736.95
2018-09-15T13:35:11.997Z,101735.22
2018-09-15T13:37:40.417Z,101738.25
2018-09-15T13:40:08.870Z,101728.34
2018-09-15T13:42:37.304Z,101723.17
2018-09-15T13:45:05.796Z,101716.28
2018-09-15T13:47:34.328Z,101721.05
2018-09-15T13:50:02.749Z,101725.79
2018-09-15T13:52:32.128Z,101730.98
2018-09-15T13:55:00.571Z,101740.04
2018-09-15T13:57:29.025Z,101735.30
2018-09-15T13:59:57.519Z,101731.41
2018-09-15T14:02:25.928Z,101737.00
2018-09-15T14:04:54.395Z,101736.98
2018-09-15T14:07:22.801Z,101732.24
2018-09-15T14:09:51.210Z,101740.88
2018-09-15T14:12:19.615Z,101749.08
2018-09-15T14:14:47.985Z,101740.02
2018-09-15T14:17:16.451Z,101743.91
2018-09-15T14:19:44.905Z,101742.64
2018-09-15T14:22:13.347Z,101744.80
2018-09-15T14:24:41.803Z,101750.41
2018-09-15T14:27:10.216Z,101752.14
2018-09-15T14:29:38.666Z,101753.84
2018-09-15T14:32:07.110Z,101748.19
2018-09-15T14:34:35.583Z,101746.45
2018-09-15T14:37:04.007Z,101739.11
2018-09-15T14:39:32.433Z,101738.66
2018-09-15T14:42:00.896Z,101729.17
2018-09-15T14:44:29.340Z,101737.81
2018-09-15T14:46:57.745Z,101739.11
2018-09-15T14:49:26.174Z,101735.63
2018-09-15T14:51:54.617Z,101731.32
2018-09-15T14:54:23.020Z,101742.13
2018-09-15T14:56:51.423Z,101733.02
2018-09-15T14:59:19.826Z,101742.45
2018-09-15T15:01:48.377Z,101736.38
2018-09-15T15:04:16.809Z,101726.83
2018-09-15T15:06:45.181Z,101739.34
2018-09-15T15:09:13.633Z,101733.30
2018-09-15T15:11:43.027Z,101745.37
2018-09-15T15:14:11.479Z,101734.53
2018-09-15T15:16:39.926Z,101734.52
2018-09-15T15:19:09.147Z,101729.77
2018-09-15T15:21:37.569Z,101741.00
2018-09-15T15:24:06.024Z,101741.86
2018-09-15T15:26:34.599Z,101735.41
2018-09-15T15:29:03.022Z,101737.63
2018-09-15T15:31:31.516Z,101730.78
2018-09-15T15:33:59.904Z,101734.27
2018-09-15T15:36:28.369Z,101734.73
2018-09-15T15:38:56.823Z,101736.91
2018-09-15T15:41:25.766Z,101736.03
2018-09-15T15:43:54.238Z,101734.31
2018-09-15T15:46:22.740Z,101741.66
2018-09-15T15:48:51.141Z,101734.30
2018-09-15T15:51:19.674Z,101746.00
2018-09-15T15:53:48.057Z,101739.53
2018-09-15T15:56:16.552Z,101742.13
2018-09-15T15:58:45.242Z,101738.66
2018-09-15T16:01:13.509Z,101735.66
2018-09-15T16:03:41.909Z,101742.98
2018-09-15T16:06:10.393Z,101742.13
2018-09-15T16:08:38.803Z,101743.85
2018-09-15T16:11:07.244Z,101743.44
2018-09-15T16:13:35.680Z,101739.13
2018-09-15T16:16:04.097Z,101732.66
2018-09-15T16:18:32.496Z,101740.44
2018-09-15T16:21:00.945Z,101739.59
2018-09-15T16:23:29.419Z,101740.00
2018-09-15T16:25:57.914Z,101736.98
2018-09-15T16:28:27.302Z,101739.16
2018-09-15T16:30:55.737Z,101742.61
2018-09-15T16:33:24.165Z,101749.08
2018-09-15T16:35:52.630Z,101740.44
2018-09-15T16:38:21.115Z,101733.52
2018-09-15T16:40:49.581Z,101737.84
2018-09-15T16:43:18.468Z,101735.23
2018-09-15T16:45:47.878Z,101740.85
2018-09-15T16:48:16.270Z,101739.57
2018-09-15T16:50:44.680Z,101738.27
2018-09-15T16:53:13.090Z,101744.34
2018-09-15T16:55:41.541Z,101744.80
2018-09-15T16:58:09.963Z,101737.88
2018-09-15T17:00:38.524Z,101738.75
2018-09-15T17:03:07.045Z,101737.05
2018-09-15T17:05:35.462Z,101734.47
2018-09-15T17:08:03.954Z,101741.35
2018-09-15T17:10:32.483Z,101740.51
2018-09-15T17:13:00.939Z,101743.54
2018-09-15T17:15:29.390Z,101740.50
2018-09-15T17:17:57.744Z,101750.00
2018-09-15T17:20:26.162Z,101744.83
2018-09-15T17:22:54.671Z,101747.39
2018-09-15T17:25:23.091Z,101748.27
2018-09-15T17:27:51.509Z,101742.23
2018-09-15T17:30:19.967Z,101743.92
2018-09-15T17:32:48.381Z,101742.60
2018-09-15T17:35:16.813Z,101743.91
2018-09-15T17:37:45.232Z,101755.94
2018-09-15T17:40:13.662Z,101747.75
2018-09-15T17:42:42.068Z,101754.21
2018-09-15T17:45:10.486Z,101761.50
2018-09-15T17:47:38.962Z,101760.62
2018-09-15T17:50:07.460Z,101766.23
2018-09-15T17:52:35.944Z,101765.33
2018-09-15T17:55:04.357Z,101770.06
2018-09-15T17:57:32.804Z,101778.67
2018-09-15T18:00:01.236Z,101773.49
2018-09-15T18:02:29.767Z,101774.72
2018-09-15T18:04:58.250Z,101779.88
2018-09-15T18:07:26.726Z,101776.37
2018-09-15T18:09:55.185Z,101769.47
2018-09-15T18:12:23.600Z,101771.62
2018-09-15T18:14:52.099Z,101772.48
2018-09-15T18:17:21.102Z,101778.91
2018-09-15T18:19:49.548Z,101782.69
2018-09-15T18:22:17.944Z,101789.05
2018-09-15T18:24:46.370Z,101794.19
2018-09-15T18:27:14.850Z,101792.89
2018-09-15T18:29:43.250Z,101808.78
2018-09-15T18:32:11.724Z,101803.97
2018-09-15T18:34:40.239Z,101802.67
2018-09-15T18:37:08.653Z,101796.17
2018-09-15T18:39:37.121Z,101797.47
2018-09-15T18:42:05.621Z,101801.28
2018-09-15T18:44:34.091Z,101800.81
2018-09-15T18:47:02.495Z,101805.09
2018-09-15T18:49:30.996Z,101807.67
2018-09-15T18:51:59.457Z,101805.93
2018-09-15T18:54:27.921Z,101811.86
2018-09-15T18:56:56.353Z,101810.53
2018-09-15T18:59:24.849Z,101811.38
2018-09-15T19:01:53.326Z,101821.22
2018-09-15T19:04:21.777Z,101818.59
2018-09-15T19:06:50.285Z,101823.27
2018-09-15T19:09:18.710Z,101821.44
2018-09-15T19:11:47.189Z,101823.14
2018-09-15T19:14:15.691Z,101824.41
2018-09-15T19:16:44.021Z,101821.83
2018-09-15T19:19:12.420Z,101828.26
2018-09-15T19:21:40.859Z,101828.67
2018-09-15T19:24:09.305Z,101829.08
2018-09-15T19:26:37.746Z,101829.37
2018-09-15T19:29:06.255Z,101836.22
2018-09-15T19:31:34.756Z,101834.48
2018-09-15T19:34:03.280Z,101833.17
2018-09-15T19:36:31.770Z,101833.58
2018-09-15T19:39:00.179Z,101820.45
2018-09-15T19:41:28.671Z,101838.13
2018-09-15T19:43:57.118Z,101844.55
2018-09-15T19:46:25.564Z,101850.09
2018-09-15T19:48:53.986Z,101850.52
2018-09-15T19:51:22.466Z,101849.56
2018-09-15T19:53:50.868Z,101852.14
2018-09-15T19:56:19.315Z,101852.03
2018-09-15T19:58:47.940Z,101853.80
2018-09-15T20:01:16.483Z,101855.49
2018-09-15T20:03:44.924Z,101857.23
2018-09-15T20:06:13.488Z,101859.75
2018-09-15T20:08:41.886Z,101855.49
2018-09-15T20:11:10.354Z,101855.05
2018-09-15T20:13:38.805Z,101859.73
2018-09-15T20:16:06.025Z,101858.84
2018-09-15T20:18:33.260Z,101857.03
2018-09-15T20:21:00.455Z,101856.64
2018-09-15T20:23:28.832Z,101850.22
2018-09-15T20:25:57.212Z,101854.06
2018-09-15T20:28:25.722Z,101851.03
2018-09-15T20:30:54.180Z,101854.45
2018-09-15T20:33:22.641Z,101849.70
2018-09-15T20:35:50.977Z,101850.89
2018-09-15T20:38:19.428Z,101856.82
2018-09-15T20:40:47.908Z,101860.16
2018-09-15T20:43:16.309Z,101828.68
2018-09-15T20:45:44.758Z,101858.85
2018-09-15T20:48:13.189Z,101859.34
2018-09-15T20:50:41.619Z,101862.27
2018-09-15T20:53:10.039Z,101863.50
2018-09-15T20:55:38.468Z,101859.96
2018-09-15T20:58:06.825Z,101849.17
2018-09-15T21:00:36.124Z,101850.92
2018-09-15T21:03:04.610Z,101847.06
2018-09-15T21:05:33.039Z,101854.75
2018-09-15T21:08:01.448Z,101848.69
2018-09-15T21:10:30.259Z,101855.53
2018-09-15T21:12:58.675Z,101850.75
2018-09-15T21:15:27.091Z,101853.67
2018-09-15T21:17:55.829Z,101857.09
2018-09-15T21:20:24.248Z,101853.16
2018-09-15T21:22:52.714Z,101852.70
2018-09-15T21:25:21.148Z,101856.58
2018-09-15T21:27:49.614Z,101852.72
2018-09-15T21:30:18.105Z,101855.23
2018-09-15T21:32:46.557Z,101856.45
2018-09-15T21:35:15.036Z,101849.68
2018-09-15T21:37:43.460Z,101851.41
2018-09-15T21:40:11.832Z,101857.42
2018-09-15T21:42:40.323Z,101858.73
2018-09-15T21:45:08.795Z,101856.09
2018-09-15T21:47:37.209Z,101859.36
2018-09-15T21:50:05.806Z,101855.81
2018-09-15T21:52:34.240Z,101849.51
2018-09-15T21:55:02.705Z,101857.09
2018-09-15T21:57:31.143Z,101855.70
2018-09-15T21:59:59.609Z,101863.87
2018-09-15T22:02:28.104Z,101861.34
2018-09-15T22:04:56.677Z,101862.38
2018-09-15T22:07:25.052Z,101862.38
2018-09-15T22:09:53.484Z,101870.04
2018-09-15T22:12:22.053Z,101862.58
2018-09-15T22:14:51.148Z,101863.13
2018-09-15T22:17:19.668Z,101865.41
2018-09-15T22:19:48.289Z,101861.48
2018-09-15T22:22:16.945Z,101864.36
2018-09-15T22:24:45.249Z,101866.44
2018-09-15T22:27:13.767Z,101865.52
2018-09-15T22:29:42.188Z,101866.41
2018-09-15T22:32:10.735Z,101865.89
2018-09-15T22:34:39.168Z,101858.54
2018-09-15T22:37:07.650Z,101864.02
2018-09-15T22:39:36.050Z,101867.03
2018-09-15T22:42:04.533Z,101857.95
2018-09-15T22:44:32.946Z,101858.88
2018-09-15T22:47:01.419Z,101859.33
2018-09-15T22:49:30.397Z,101853.73
2018-09-15T22:51:58.867Z,101860.06
2018-09-15T22:54:27.445Z,101858.33
2018-09-15T22:56:55.841Z,101850.11
2018-09-15T22:59:24.365Z,101848.41
2018-09-15T23:01:52.786Z,101848.73
2018-09-15T23:04:22.152Z,101857.23
2018-09-15T23:06:50.579Z,101852.17
2018-09-15T23:09:19.053Z,101849.58
2018-09-15T23:11:47.444Z,101846.92
2018-09-15T23:14:15.858Z,101844.36
2018-09-15T23:16:44.297Z,101840.97
2018-09-15T23:19:12.839Z,101847.54
2018-09-15T23:21:41.225Z,101847.01
2018-09-15T23:24:09.714Z,101852.06
2018-09-15T23:26:38.104Z,101856.34
2018-09-15T23:29:06.595Z,101853.72
2018-09-15T23:31:35.040Z,101852.41
2018-09-15T23:34:04.119Z,101852.73
2018-09-15T23:36:32.698Z,101852.62
2018-09-15T23:39:01.132Z,101857.76
2018-09-15T23:41:29.644Z,101856.84
2018-09-15T23:43:58.052Z,101860.72
2018-09-15T23:46:26.448Z,101850.80
2018-09-15T23:48:54.887Z,101856.66
2018-09-15T23:51:23.308Z,101850.23
2018-09-15T23:53:51.691Z,101847.81
2018-09-15T23:56:20.351Z,101841.56
2018-09-15T23:58:48.752Z,101839.08
